sensor_id;sensor_type;location;lat;lon;timestamp;pressure;altitude;pressure_sealevel;temperature;humidity
13612;BME280;6877;51.436;6.774;2024-01-15T00:01:46;99823.31;;;-0.42;100.00
13612;BME280;6877;51.436;6.774;2024-01-15T00:04:17;99819.91;;;-0.41;100.00
13612;BME280;6877;51.436;6.774;2024-01-15T00:06:44;99816.44;;;-0.43;100.00
13612;BME280;6877;51.436;6.774;2024-01-15T00:09:10;99802.72;;;-0.45;100.00
13612;BME280;6877;51.436;6.774;2024-01-15T00:11:37;99799.28;;;-0.45;100.00
13612;BME280;6877;51.436;6.774;2024-01-15T00:14:08;99790.75;;;-0.43;100.00
13612;BME280;6877;51.436;6.774;2024-01-15T00:16:35;99783.03;;;-0.41;100.00
13612;BME280;6877;51.436;6.774;2024-01-15T00:19:01;99779.63;;;-0.39;100.00
13612;BME280;6877;51.436;6.774;2024-01-15T00:21:27;99780.53;;;-0.37;100.00
13612;BME280;6877;51.436;6.774;2024-01-15T00:23:54;99780.56;;;-0.34;100.00
13612;BME280;6877;51.436;6.774;2024-01-15T00:26:21;99776.28;;;-0.33;100.00
13612;BME280;6877;51.436;6.774;2024-01-15T00:28:48;99772.03;;;-0.30;100.00
13612;BME280;6877;51.436;6.774;2024-01-15T00:31:16;99777.19;;;-0.27;100.00
13612;BME280;6877;51.436;6.774;2024-01-15T00:33:43;99774.66;;;-0.25;100.00
13612;BME280;6877;51.436;6.774;2024-01-15T00:36:09;99769.50;;;-0.25;100.00
13612;BME280;6877;51.436;6.774;2024-01-15T00:38:36;99768.66;;;-0.22;100.00
13612;BME280;6877;51.436;6.774;2024-01-15T00:41:02;99765.25;;;-0.21;100.00
13612;BME280;6877;51.436;6.774;2024-01-15T00:43:29;99766.97;;;-0.20;100.00
13612;BME280;6877;51.436;6.774;2024-01-15T00:45:55;99761.81;;;-0.22;100.00
13612;BME280;6877;51.436;6.774;2024-01-15T00:48:22;99760.91;;;-0.26;100.00
13612;BME280;6877;51.436;6.774;2024-01-15T00:50:48;99766.09;;;-0.24;100.00
13612;BME280;6877;51.436;6.774;2024-01-15T00:53:20;99755.75;;;-0.26;100.00
13612;BME280;6877;51.436;6.774;2024-01-15T00:55:48;99766.94;;;-0.25;100.00
13612;BME280;6877;51.436;6.774;2024-01-15T00:58:15;99771.19;;;-0.26;100.00
13612;BME280;6877;51.436;6.774;2024-01-15T01:00:42;99766.94;;;-0.24;100.00
13612;BME280;6877;51.436;6.774;2024-01-15T01:03:13;99760.09;;;-0.21;100.00
13612;BME280;6877;51.436;6.774;2024-01-15T01:05:40;99762.69;;;-0.20;100.00
13612;BME280;6877;51.436;6.774;2024-01-15T01:08:06;99748.13;;;-0.21;100.00
13612;BME280;6877;51.436;6.774;2024-01-15T01:10:38;99748.09;;;-0.19;100.00
13612;BME280;6877;51.436;6.774;2024-01-15T01:13:11;99748.09;;;-0.19;100.00
13612;BME280;6877;51.436;6.774;2024-01-15T01:15:42;99749.00;;;-0.17;100.00
13612;BME280;6877;51.436;6.774;2024-01-15T01:18:09;99751.56;;;-0.17;100.00
13612;BME280;6877;51.436;6.774;2024-01-15T01:20:40;99737.00;;;-0.18;100.00
13612;BME280;6877;51.436;6.774;2024-01-15T01:23:07;99745.56;;;-0.16;100.00
13612;BME280;6877;51.436;6.774;2024-01-15T01:25:33;99746.41;;;-0.17;100.00
13612;BME280;6877;51.436;6.774;2024-01-15T01:28:00;99732.69;;;-0.19;100.00
13612;BME280;6877;51.436;6.774;2024-01-15T01:30:26;99755.84;;;-0.18;100.00
13612;BME280;6877;51.436;6.774;2024-01-15T01:32:53;99744.75;;;-0.15;100.00
13612;BME280;6877;51.436;6.774;2024-01-15T01:35:27;99746.41;;;-0.16;100.00
13612;BME280;6877;51.436;6.774;2024-01-15T01:37:53;99735.28;;;-0.16;100.00
13612;BME280;6877;51.436;6.774;2024-01-15T01:40:20;99750.75;;;-0.15;100.00
13612;BME280;6877;51.436;6.774;2024-01-15T01:42:48;99739.59;;;-0.15;100.00
13612;BME280;6877;51.436;6.774;2024-01-15T01:45:14;99738.72;;;-0.17;100.00
13612;BME280;6877;51.436;6.774;2024-01-15T01:47:46;99746.41;;;-0.17;100.00
13612;BME280;6877;51.436;6.774;2024-01-15T01:50:13;99748.13;;;-0.16;100.00
13612;BME280;6877;51.436;6.774;2024-01-15T01:52:45;99744.75;;;-0.15;100.00
13612;BME280;6877;51.436;6.774;2024-01-15T01:55:18;99746.44;;;-0.14;100.00
13612;BME280;6877;51.436;6.774;2024-01-15T01:57:50;99744.75;;;-0.15;100.00
13612;BME280;6877;51.436;6.774;2024-01-15T02:00:17;99750.75;;;-0.15;100.00
13612;BME280;6877;51.436;6.774;2024-01-15T02:02:45;99738.72;;;-0.13;100.00
13612;BME280;6877;51.436;6.774;2024-01-15T02:05:18;99750.75;;;-0.13;100.00
13612;BME280;6877;51.436;6.774;2024-01-15T02:07:45;99746.47;;;-0.11;100.00
13612;BME280;6877;51.436;6.774;2024-01-15T02:10:17;99754.19;;;-0.10;100.00
13612;BME280;6877;51.436;6.774;2024-01-15T02:12:44;99755.94;;;-0.07;100.00
13612;BME280;6877;51.436;6.774;2024-01-15T02:15:11;99753.38;;;-0.06;100.00
13612;BME280;6877;51.436;6.774;2024-01-15T02:17:59;99751.69;;;-0.05;100.00
13612;BME280;6877;51.436;6.774;2024-01-15T02:20:26;99760.28;;;-0.03;100.00
13612;BME280;6877;51.436;6.774;2024-01-15T02:22:53;99760.31;;;0.00;100.00
13612;BME280;6877;51.436;6.774;2024-01-15T02:25:20;99755.97;;;-0.01;100.00
13612;BME280;6877;51.436;6.774;2024-01-15T02:27:51;99750.00;;;0.02;100.00
13612;BME280;6877;51.436;6.774;2024-01-15T02:30:18;99755.16;;;0.00;100.00
13612;BME280;6877;51.436;6.774;2024-01-15T02:32:45;99753.44;;;0.02;100.00
13612;BME280;6877;51.436;6.774;2024-01-15T02:35:12;99754.28;;;0.03;100.00
13612;BME280;6877;51.436;6.774;2024-01-15T02:37:38;99759.44;;;0.03;100.00
13612;BME280;6877;51.436;6.774;2024-01-15T02:40:05;99751.75;;;0.04;100.00
13612;BME280;6877;51.436;6.774;2024-01-15T02:42:32;99756.91;;;0.07;100.00
13612;BME280;6877;51.436;6.774;2024-01-15T02:45:04;99758.63;;;0.08;100.00
13612;BME280;6877;51.436;6.774;2024-01-15T02:47:31;99751.81;;;0.10;100.00
13612;BME280;6877;51.436;6.774;2024-01-15T02:50:03;99756.94;;;0.10;100.00
13612;BME280;6877;51.436;6.774;2024-01-15T02:52:29;99750.94;;;0.10;100.00
13612;BME280;6877;51.436;6.774;2024-01-15T02:55:01;99746.66;;;0.10;100.00
13612;BME280;6877;51.436;6.774;2024-01-15T02:57:32;99744.06;;;0.07;100.00
13612;BME280;6877;51.436;6.774;2024-01-15T03:00:04;99738.00;;;0.02;100.00
13612;BME280;6877;51.436;6.774;2024-01-15T03:02:31;99750.88;;;0.02;100.00
13612;BME280;6877;51.436;6.774;2024-01-15T03:04:57;99744.88;;;0.03;100.00
13612;BME280;6877;51.436;6.774;2024-01-15T03:07:25;99752.59;;;0.02;100.00
13612;BME280;6877;51.436;6.774;2024-01-15T03:09:52;99742.28;;;-0.03;100.00
13612;BME280;6877;51.436;6.774;2024-01-15T03:12:18;99735.38;;;-0.06;100.00
13612;BME280;6877;51.436;6.774;2024-01-15T03:14:45;99736.22;;;-0.08;100.00
13612;BME280;6877;51.436;6.774;2024-01-15T03:17:16;99731.88;;;-0.15;100.00
13612;BME280;6877;51.436;6.774;2024-01-15T03:19:42;99743.00;;;-0.16;100.00
13612;BME280;6877;51.436;6.774;2024-01-15T03:22:12;99743.00;;;-0.16;100.00
13612;BME280;6877;51.436;6.774;2024-01-15T03:24:46;99747.34;;;-0.12;100.00
13612;BME280;6877;51.436;6.774;2024-01-15T03:27:13;99752.53;;;-0.06;100.00
13612;BME280;6877;51.436;6.774;2024-01-15T03:29:43;99744.84;;;-0.03;100.00
13612;BME280;6877;51.436;6.774;2024-01-15T03:32:09;99741.41;;;-0.02;100.00
13612;BME280;6877;51.436;6.774;2024-01-15T03:34:36;99744.84;;;-0.03;100.00
13612;BME280;6877;51.436;6.774;2024-01-15T03:37:05;99737.09;;;-0.06;100.00
13612;BME280;6877;51.436;6.774;2024-01-15T03:39:37;99737.13;;;-0.03;100.00
13612;BME280;6877;51.436;6.774;2024-01-15T03:42:08;99741.41;;;-0.02;100.00
13612;BME280;6877;51.436;6.774;2024-01-15T03:44:34;99740.56;;;-0.01;100.00
13612;BME280;6877;51.436;6.774;2024-01-15T03:47:03;99735.44;;;0.01;100.00
13612;BME280;6877;51.436;6.774;2024-01-15T03:49:30;99738.00;;;0.02;100.00
13612;BME280;6877;51.436;6.774;2024-01-15T03:51:57;99738.88;;;0.04;100.00
13612;BME280;6877;51.436;6.774;2024-01-15T03:54:24;99736.31;;;0.06;100.00
13612;BME280;6877;51.436;6.774;2024-01-15T03:56:50;99738.06;;;0.08;100.00
13612;BME280;6877;51.436;6.774;2024-01-15T03:59:17;99735.47;;;0.08;100.00
13612;BME280;6877;51.436;6.774;2024-01-15T04:01:50;99729.44;;;0.06;100.00
13612;BME280;6877;51.436;6.774;2024-01-15T04:04:19;99726.88;;;0.06;100.00
13612;BME280;6877;51.436;6.774;2024-01-15T04:06:48;99726.03;;;0.04;100.00
13612;BME280;6877;51.436;6.774;2024-01-15T04:09:15;99725.97;;;-0.02;100.00
13612;BME280;6877;51.436;6.774;2024-01-15T04:11:44;99720.78;;;-0.08;100.00
13612;BME280;6877;51.436;6.774;2024-01-15T04:14:11;99721.63;;;-0.11;100.00
13612;BME280;6877;51.436;6.774;2024-01-15T04:16:37;99712.16;;;-0.13;100.00
13612;BME280;6877;51.436;6.774;2024-01-15T04:19:04;99705.34;;;-0.11;100.00
13612;BME280;6877;51.436;6.774;2024-01-15T04:21:31;99704.47;;;-0.12;100.00
13612;BME280;6877;51.436;6.774;2024-01-15T04:23:57;99700.16;;;-0.14;100.00
13612;BME280;6877;51.436;6.774;2024-01-15T04:26:29;99700.97;;;-0.20;100.00
13612;BME280;6877;51.436;6.774;2024-01-15T04:28:55;99693.25;;;-0.21;100.00
13612;BME280;6877;51.436;6.774;2024-01-15T04:31:24;99691.50;;;-0.22;100.00
13612;BME280;6877;51.436;6.774;2024-01-15T04:33:54;99694.94;;;-0.24;100.00
13612;BME280;6877;51.436;6.774;2024-01-15T04:36:20;99688.06;;;-0.26;100.00
13612;BME280;6877;51.436;6.774;2024-01-15T04:38:46;99690.66;;;-0.25;100.00
13612;BME280;6877;51.436;6.774;2024-01-15T04:41:14;99685.50;;;-0.26;100.00
13612;BME280;6877;51.436;6.774;2024-01-15T04:43:46;99693.22;;;-0.25;100.00
13612;BME280;6877;51.436;6.774;2024-01-15T04:46:13;99699.22;;;-0.22;100.00
13612;BME280;6877;51.436;6.774;2024-01-15T04:48:39;99696.69;;;-0.19;100.00
13612;BME280;6877;51.436;6.774;2024-01-15T04:51:08;99691.56;;;-0.16;100.00
13612;BME280;6877;51.436;6.774;2024-01-15T04:53:35;99692.47;;;-0.11;100.00
13612;BME280;6877;51.436;6.774;2024-01-15T04:56:02;99683.06;;;-0.09;100.00
13612;BME280;6877;51.436;6.774;2024-01-15T04:58:28;99686.47;;;-0.10;100.00
13612;BME280;6877;51.436;6.774;2024-01-15T05:01:00;99690.75;;;-0.11;100.00
13612;BME280;6877;51.436;6.774;2024-01-15T05:03:27;99687.31;;;-0.13;100.00
13612;BME280;6877;51.436;6.774;2024-01-15T05:06:01;99685.59;;;-0.14;100.00
13612;BME280;6877;51.436;6.774;2024-01-15T05:08:27;99673.59;;;-0.15;100.00
13612;BME280;6877;51.436;6.774;2024-01-15T05:10:59;99675.31;;;-0.15;100.00
13612;BME280;6877;51.436;6.774;2024-01-15T05:13:30;99683.00;;;-0.17;100.00
13612;BME280;6877;51.436;6.774;2024-01-15T05:16:02;99683.00;;;-0.18;100.00
13612;BME280;6877;51.436;6.774;2024-01-15T05:18:28;99674.41;;;-0.17;100.00
13612;BME280;6877;51.436;6.774;2024-01-15T05:21:00;99672.75;;;-0.12;100.00
13612;BME280;6877;51.436;6.774;2024-01-15T05:23:26;99669.34;;;-0.08;100.00
13612;BME280;6877;51.436;6.774;2024-01-15T05:25:53;99666.78;;;-0.07;100.00
13612;BME280;6877;51.436;6.774;2024-01-15T05:28:20;99670.22;;;-0.05;100.00
13612;BME280;6877;51.436;6.774;2024-01-15T05:30:51;99672.84;;;-0.03;100.00
13612;BME280;6877;51.436;6.774;2024-01-15T05:33:18;99662.56;;;0.00;100.00
13612;BME280;6877;51.436;6.774;2024-01-15T05:35:49;99657.41;;;0.03;100.00
13612;BME280;6877;51.436;6.774;2024-01-15T05:38:21;99666.88;;;0.04;100.00
13612;BME280;6877;51.436;6.774;2024-01-15T05:40:53;99662.56;;;0.06;100.00
13612;BME280;6877;51.436;6.774;2024-01-15T05:43:19;99658.31;;;0.07;100.00
13612;BME280;6877;51.436;6.774;2024-01-15T05:45:51;99654.88;;;0.08;100.00
13612;BME280;6877;51.436;6.774;2024-01-15T05:48:17;99657.44;;;0.09;100.00
13612;BME280;6877;51.436;6.774;2024-01-15T05:50:44;99644.59;;;0.09;100.00
13612;BME280;6877;51.436;6.774;2024-01-15T05:53:15;99654.03;;;0.09;100.00
13612;BME280;6877;51.436;6.774;2024-01-15T05:55:47;99652.31;;;0.11;100.00
13612;BME280;6877;51.436;6.774;2024-01-15T05:58:13;99654.06;;;0.13;100.00
13612;BME280;6877;51.436;6.774;2024-01-15T06:00:40;99648.09;;;0.16;100.00
13612;BME280;6877;51.436;6.774;2024-01-15T06:03:09;99654.94;;;0.18;100.00
13612;BME280;6877;51.436;6.774;2024-01-15T06:05:38;99654.13;;;0.22;100.00
13612;BME280;6877;51.436;6.774;2024-01-15T06:08:05;99658.41;;;0.23;100.00
13612;BME280;6877;51.436;6.774;2024-01-15T06:10:31;99643.81;;;0.24;100.00
13612;BME280;6877;51.436;6.774;2024-01-15T06:13:03;99643.84;;;0.26;100.00
13612;BME280;6877;51.436;6.774;2024-01-15T06:15:34;99650.69;;;0.25;100.00
13612;BME280;6877;51.436;6.774;2024-01-15T06:18:01;99642.97;;;0.27;100.00
13612;BME280;6877;51.436;6.774;2024-01-15T06:20:32;99649.00;;;0.29;100.00
13612;BME280;6877;51.436;6.774;2024-01-15T06:22:59;99642.13;;;0.31;100.00
13612;BME280;6877;51.436;6.774;2024-01-15T06:25:30;99640.44;;;0.30;100.00
13612;BME280;6877;51.436;6.774;2024-01-15T06:27:57;99649.03;;;0.32;100.00
13612;BME280;6877;51.436;6.774;2024-01-15T06:30:23;99645.56;;;0.31;100.00
13612;BME280;6877;51.436;6.774;2024-01-15T06:32:50;99639.59;;;0.32;100.00
13612;BME280;6877;51.436;6.774;2024-01-15T06:35:16;99631.00;;;0.33;100.00
13612;BME280;6877;51.436;6.774;2024-01-15T06:37:48;99631.84;;;0.31;100.00
13612;BME280;6877;51.436;6.774;2024-01-15T06:40:14;99630.97;;;0.24;100.00
13612;BME280;6877;51.436;6.774;2024-01-15T06:42:41;99636.06;;;0.13;100.00
13612;BME280;6877;51.436;6.774;2024-01-15T06:45:12;99632.59;;;0.11;100.00
13612;BME280;6877;51.436;6.774;2024-01-15T06:47:44;99634.31;;;0.12;100.00
13612;BME280;6877;51.436;6.774;2024-01-15T06:50:10;99626.59;;;0.12;100.00
13612;BME280;6877;51.436;6.774;2024-01-15T06:52:36;99642.91;;;0.14;100.00
13612;BME280;6877;51.436;6.774;2024-01-15T06:55:03;99648.91;;;0.13;100.00
13612;BME280;6877;51.436;6.774;2024-01-15T06:57:30;99642.06;;;0.14;100.00
13612;BME280;6877;51.436;6.774;2024-01-15T06:59:56;99641.19;;;0.15;100.00
13612;BME280;6877;51.436;6.774;2024-01-15T07:02:23;99635.19;;;0.14;100.00
13612;BME280;6877;51.436;6.774;2024-01-15T07:04:54;99640.34;;;0.14;100.00
13612;BME280;6877;51.436;6.774;2024-01-15T07:07:20;99629.16;;;0.12;100.00
13612;BME280;6877;51.436;6.774;2024-01-15T07:09:47;99638.59;;;0.10;100.00
13612;BME280;6877;51.436;6.774;2024-01-15T07:12:18;99648.88;;;0.09;100.00
13612;BME280;6877;51.436;6.774;2024-01-15T07:14:50;99644.59;;;0.08;100.00
13612;BME280;6877;51.436;6.774;2024-01-15T07:17:16;99642.88;;;0.07;100.00
13612;BME280;6877;51.436;6.774;2024-01-15T07:19:48;99637.72;;;0.08;100.00
13612;BME280;6877;51.436;6.774;2024-01-15T07:22:19;99636.84;;;0.06;100.00
13612;BME280;6877;51.436;6.774;2024-01-15T07:24:46;99635.13;;;0.05;100.00
13612;BME280;6877;51.436;6.774;2024-01-15T07:27:17;99634.28;;;0.05;100.00
13612;BME280;6877;51.436;6.774;2024-01-15T07:29:49;99630.81;;;0.03;100.00
13612;BME280;6877;51.436;6.774;2024-01-15T07:32:15;99630.84;;;0.01;100.00
13612;BME280;6877;51.436;6.774;2024-01-15T07:34:47;99632.53;;;-0.01;100.00
13612;BME280;6877;51.436;6.774;2024-01-15T07:37:13;99634.19;;;-0.08;100.00
13612;BME280;6877;51.436;6.774;2024-01-15T07:39:45;99628.16;;;-0.14;100.00
13612;BME280;6877;51.436;6.774;2024-01-15T07:42:16;99621.25;;;-0.20;100.00
13612;BME280;6877;51.436;6.774;2024-01-15T07:44:43;99623.81;;;-0.23;100.00
13612;BME280;6877;51.436;6.774;2024-01-15T07:47:09;99631.53;;;-0.25;100.00
13612;BME280;6877;51.436;6.774;2024-01-15T07:49:36;99629.78;;;-0.26;100.00
13612;BME280;6877;51.436;6.774;2024-01-15T07:52:02;99633.22;;;-0.28;100.00
13612;BME280;6877;51.436;6.774;2024-01-15T07:54:29;99634.91;;;-0.29;100.00
13612;BME280;6877;51.436;6.774;2024-01-15T07:57:01;99634.06;;;-0.28;100.00
13612;BME280;6877;51.436;6.774;2024-01-15T07:59:31;99641.78;;;-0.28;100.00
13612;BME280;6877;51.436;6.774;2024-01-15T08:01:59;99631.47;;;-0.34;100.00
13612;BME280;6877;51.436;6.774;2024-01-15T08:04:30;99634.84;;;-0.35;100.00
13612;BME280;6877;51.436;6.774;2024-01-15T08:06:57;99634.00;;;-0.35;100.00
13612;BME280;6877;51.436;6.774;2024-01-15T08:09:23;99632.28;;;-0.38;100.00
13612;BME280;6877;51.436;6.774;2024-01-15T08:11:55;99633.94;;;-0.46;100.00
13612;BME280;6877;51.436;6.774;2024-01-15T08:14:23;99625.34;;;-0.50;100.00
13612;BME280;6877;51.436;6.774;2024-01-15T08:16:49;99628.72;;;-0.51;100.00
13612;BME280;6877;51.436;6.774;2024-01-15T08:19:16;99627.91;;;-0.50;100.00
13612;BME280;6877;51.436;6.774;2024-01-15T08:21:47;99627.91;;;-0.48;100.00
13612;BME280;6877;51.436;6.774;2024-01-15T08:24:14;99633.94;;;-0.44;100.00
13612;BME280;6877;51.436;6.774;2024-01-15T08:26:41;99631.41;;;-0.40;100.00
13612;BME280;6877;51.436;6.774;2024-01-15T08:29:08;99632.28;;;-0.38;100.00
13612;BME280;6877;51.436;6.774;2024-01-15T08:31:34;99633.16;;;-0.37;100.00
13612;BME280;6877;51.436;6.774;2024-01-15T08:34:01;99636.56;;;-0.37;100.00
13612;BME280;6877;51.436;6.774;2024-01-15T08:36:28;99635.66;;;-0.42;100.00
13612;BME280;6877;51.436;6.774;2024-01-15T08:38:58;99634.75;;;-0.50;100.00
13612;BME280;6877;51.436;6.774;2024-01-15T08:41:24;99627.03;;;-0.53;100.00
13612;BME280;6877;51.436;6.774;2024-01-15T08:43:51;99641.59;;;-0.52;100.00
13612;BME280;6877;51.436;6.774;2024-01-15T08:46:19;99643.31;;;-0.48;100.00
13612;BME280;6877;51.436;6.774;2024-01-15T08:48:46;99645.91;;;-0.45;100.00
13612;BME280;6877;51.436;6.774;2024-01-15T08:51:12;99656.19;;;-0.48;100.00
13612;BME280;6877;51.436;6.774;2024-01-15T08:53:39;99662.09;;;-0.58;100.00
13612;BME280;6877;51.436;6.774;2024-01-15T08:56:06;99664.53;;;-0.71;100.00
13612;BME280;6877;51.436;6.774;2024-01-15T08:58:32;99667.88;;;-0.81;100.00
13612;BME280;6877;51.436;6.774;2024-01-15T09:00:59;99663.53;;;-0.88;100.00
13612;BME280;6877;51.436;6.774;2024-01-15T09:03:26;99666.06;;;-0.89;100.00
13612;BME280;6877;51.436;6.774;2024-01-15T09:05:52;99658.38;;;-0.91;100.00
13612;BME280;6877;51.436;6.774;2024-01-15T09:08:24;99666.06;;;-0.91;100.00
13612;BME280;6877;51.436;6.774;2024-01-15T09:10:56;99665.19;;;-0.91;100.00
13612;BME280;6877;51.436;6.774;2024-01-15T09:13:22;99656.63;;;-0.92;100.00
13612;BME280;6877;51.436;6.774;2024-01-15T09:15:53;99661.81;;;-0.86;100.00
13612;BME280;6877;51.436;6.774;2024-01-15T09:18:20;99668.78;;;-0.76;100.00
13612;BME280;6877;51.436;6.774;2024-01-15T09:20:46;99664.56;;;-0.69;100.00
13612;BME280;6877;51.436;6.774;2024-01-15T09:23:18;99664.63;;;-0.63;100.00
13612;BME280;6877;51.436;6.774;2024-01-15T09:25:49;99658.66;;;-0.59;100.00
13612;BME280;6877;51.436;6.774;2024-01-15T09:28:16;99659.56;;;-0.51;100.00
13612;BME280;6877;51.436;6.774;2024-01-15T09:30:42;99663.09;;;-0.42;100.00
13612;BME280;6877;51.436;6.774;2024-01-15T09:33:14;99660.59;;;-0.32;100.00
13612;BME280;6877;51.436;6.774;2024-01-15T09:35:46;99669.22;;;-0.24;100.00
13612;BME280;6877;51.436;6.774;2024-01-15T09:38:13;99670.97;;;-0.21;100.00
13612;BME280;6877;51.436;6.774;2024-01-15T09:40:43;99667.53;;;-0.21;100.00
13612;BME280;6877;51.436;6.774;2024-01-15T09:43:14;99665.75;;;-0.29;100.00
13612;BME280;6877;51.436;6.774;2024-01-15T09:45:42;99671.75;;;-0.30;100.00
13612;BME280;6877;51.436;6.774;2024-01-15T09:48:14;99672.66;;;-0.25;100.00
13612;BME280;6877;51.436;6.774;2024-01-15T09:50:46;99672.69;;;-0.21;100.00
13612;BME280;6877;51.436;6.774;2024-01-15T09:53:14;99672.72;;;-0.17;100.00
13612;BME280;6877;51.436;6.774;2024-01-15T09:55:41;99677.03;;;-0.11;100.00
13612;BME280;6877;51.436;6.774;2024-01-15T09:58:08;99673.63;;;-0.09;100.00
13612;BME280;6877;51.436;6.774;2024-01-15T10:00:38;99683.06;;;-0.09;100.00
13612;BME280;6877;51.436;6.774;2024-01-15T10:03:08;99682.16;;;-0.13;100.00
13612;BME280;6877;51.436;6.774;2024-01-15T10:05:42;99679.59;;;-0.14;100.00
13612;BME280;6877;51.436;6.774;2024-01-15T10:08:14;99676.13;;;-0.16;100.00
13612;BME280;6877;51.436;6.774;2024-01-15T10:10:45;99674.41;;;-0.17;100.00
13612;BME280;6877;51.436;6.774;2024-01-15T10:13:12;99665.84;;;-0.18;100.00
13612;BME280;6877;51.436;6.774;2024-01-15T10:15:45;99668.41;;;-0.21;100.00
13612;BME280;6877;51.436;6.774;2024-01-15T10:18:13;99655.53;;;-0.19;100.00
13612;BME280;6877;51.436;6.774;2024-01-15T10:20:42;99648.72;;;-0.17;100.00
13612;BME280;6877;51.436;6.774;2024-01-15T10:23:08;99653.88;;;-0.14;100.00
13612;BME280;6877;51.436;6.774;2024-01-15T10:25:35;99654.75;;;-0.11;100.00
13612;BME280;6877;51.436;6.774;2024-01-15T10:28:07;99653.91;;;-0.08;100.00
13612;BME280;6877;51.436;6.774;2024-01-15T10:30:34;99658.25;;;-0.03;100.00
13612;BME280;6877;51.436;6.774;2024-01-15T10:33:02;99668.56;;;0.05;100.00
13612;BME280;6877;51.436;6.774;2024-01-15T10:35:29;99661.75;;;0.12;100.00
13612;BME280;6877;51.436;6.774;2024-01-15T10:37:56;99661.78;;;0.13;100.00
13612;BME280;6877;51.436;6.774;2024-01-15T10:40:28;99657.44;;;0.09;100.00
13612;BME280;6877;51.436;6.774;2024-01-15T10:42:55;99664.28;;;0.06;100.00
13612;BME280;6877;51.436;6.774;2024-01-15T10:45:22;99664.28;;;0.06;100.00
13612;BME280;6877;51.436;6.774;2024-01-15T10:47:49;99666.91;;;0.12;100.00
13612;BME280;6877;51.436;6.774;2024-01-15T10:50:15;99679.84;;;0.22;100.00
13612;BME280;6877;51.436;6.774;2024-01-15T10:52:47;99674.81;;;0.47;100.00
13612;BME280;6877;51.436;6.774;2024-01-15T10:55:14;99665.41;;;0.57;100.00
13612;BME280;6877;51.436;6.774;2024-01-15T10:57:40;99673.94;;;0.39;100.00
13612;BME280;6877;51.436;6.774;2024-01-15T11:00:07;99669.56;;;0.26;100.00
13612;BME280;6877;51.436;6.774;2024-01-15T11:02:36;99655.75;;;0.11;100.00
13612;BME280;6877;51.436;6.774;2024-01-15T11:05:08;99660.03;;;0.08;100.00
13612;BME280;6877;51.436;6.774;2024-01-15T11:07:40;99669.50;;;0.13;100.00
13612;BME280;6877;51.436;6.774;2024-01-15T11:10:08;99675.72;;;0.51;100.00
13612;BME280;6877;51.436;6.774;2024-01-15T11:12:40;99685.22;;;0.72;100.00
13612;BME280;6877;51.436;6.774;2024-01-15T11:15:07;99677.59;;;0.88;100.00
13612;BME280;6877;51.436;6.774;2024-01-15T11:17:58;99674.97;;;0.84;100.00
13612;BME280;6877;51.436;6.774;2024-01-15T11:20:32;99681.81;;;0.71;100.00
13612;BME280;6877;51.436;6.774;2024-01-15T11:22:58;99673.22;;;0.75;100.00
13612;BME280;6877;51.436;6.774;2024-01-15T11:25:34;99674.97;;;0.78;100.00
13612;BME280;6877;51.436;6.774;2024-01-15T11:28:02;99668.97;;;0.85;100.00
13612;BME280;6877;51.436;6.774;2024-01-15T11:30:28;99670.69;;;0.81;100.00
13612;BME280;6877;51.436;6.774;2024-01-15T11:32:54;99673.25;;;0.74;100.00
13612;BME280;6877;51.436;6.774;2024-01-15T11:35:21;99671.50;;;0.69;100.00
13612;BME280;6877;51.436;6.774;2024-01-15T11:40:18;99677.44;;;0.59;100.00
13612;BME280;6877;51.436;6.774;2024-01-15T11:42:45;99671.47;;;0.57;100.00
13612;BME280;6877;51.436;6.774;2024-01-15T11:45:13;99675.72;;;0.55;100.00
13612;BME280;6877;51.436;6.774;2024-01-15T11:50:27;99665.38;;;0.43;100.00
13612;BME280;6877;51.436;6.774;2024-01-15T11:53:13;99672.28;;;0.55;100.00
13612;BME280;6877;51.436;6.774;2024-01-15T11:55:44;99678.34;;;0.61;100.00
13612;BME280;6877;51.436;6.774;2024-01-15T11:58:15;99669.78;;;0.72;100.00
13612;BME280;6877;51.436;6.774;2024-01-15T12:00:44;99663.81;;;0.82;100.00
13612;BME280;6877;51.436;6.774;2024-01-15T12:03:11;99654.41;;;0.90;100.00
13612;BME280;6877;51.436;6.774;2024-01-15T12:05:38;99661.34;;;1.15;100.00
13612;BME280;6877;51.436;6.774;2024-01-15T12:08:05;99661.38;;;1.34;100.00
13612;BME280;6877;51.436;6.774;2024-01-15T12:10:38;99665.66;;;1.29;100.00
13612;BME280;6877;51.436;6.774;2024-01-15T12:13:11;99663.09;;;1.30;100.00
13612;BME280;6877;51.436;6.774;2024-01-15T12:15:39;99657.91;;;1.26;100.00
13612;BME280;6877;51.436;6.774;2024-01-15T12:18:11;99664.78;;;1.31;100.00
13612;BME280;6877;51.436;6.774;2024-01-15T12:20:39;99662.22;;;1.41;100.00
13612;BME280;6877;51.436;6.774;2024-01-15T12:23:05;99660.53;;;1.43;100.00
13612;BME280;6877;51.436;6.774;2024-01-15T12:25:33;99659.66;;;1.54;100.00
13612;BME280;6877;51.436;6.774;2024-01-15T12:28:00;99656.25;;;1.61;100.00
13612;BME280;6877;51.436;6.774;2024-01-15T12:30:28;99654.50;;;1.56;100.00
13612;BME280;6877;51.436;6.774;2024-01-15T12:32:55;99653.66;;;1.61;100.00
13612;BME280;6877;51.436;6.774;2024-01-15T12:35:24;99662.25;;;1.68;100.00
13612;BME280;6877;51.436;6.774;2024-01-15T12:37:50;99666.56;;;1.71;100.00
13612;BME280;6877;51.436;6.774;2024-01-15T12:40:20;99656.25;;;1.74;100.00
13612;BME280;6877;51.436;6.774;2024-01-15T12:42:48;99666.56;;;1.71;100.00
13612;BME280;6877;51.436;6.774;2024-01-15T12:45:14;99665.69;;;1.66;100.00
13612;BME280;6877;51.436;6.774;2024-01-15T12:47:42;99676.03;;;1.61;100.00
13612;BME280;6877;51.436;6.774;2024-01-15T12:50:09;99676.00;;;1.59;100.00
13612;BME280;6877;51.436;6.774;2024-01-15T12:52:36;99673.41;;;1.50;100.00
13612;BME280;6877;51.436;6.774;2024-01-15T12:55:05;99671.69;;;1.43;100.00
13612;BME280;6877;51.436;6.774;2024-01-15T12:57:34;99687.13;;;1.31;100.00
13612;BME280;6877;51.436;6.774;2024-01-15T13:00:01;99690.56;;;1.24;100.00
13612;BME280;6877;51.436;6.774;2024-01-15T13:02:27;99683.66;;;1.16;100.00
13612;BME280;6877;51.436;6.774;2024-01-15T13:04:54;99689.69;;;1.19;100.00
13612;BME280;6877;51.436;6.774;2024-01-15T13:07:27;99689.69;;;1.22;100.00
13612;BME280;6877;51.436;6.774;2024-01-15T13:09:53;99687.13;;;1.25;100.00
13612;BME280;6877;51.436;6.774;2024-01-15T13:12:20;99686.25;;;1.23;100.00
13612;BME280;6877;51.436;6.774;2024-01-15T13:14:47;99686.25;;;1.18;100.00
13612;BME280;6877;51.436;6.774;2024-01-15T13:17:18;99695.69;;;1.11;100.00